createdAt,value
2019-01-10T00:01:59.697Z,4.45
2019-01-10T00:05:10.276Z,4.87
2019-01-10T00:08:18.954Z,4.72
2019-01-10T00:11:26.085Z,4.70
2019-01-10T00:14:33.125Z,4.55
2019-01-10T00:17:40.324Z,4.65
2019-01-10T00:20:47.481Z,5.20
2019-01-10T00:23:54.459Z,4.58
2019-01-10T00:27:01.650Z,4.20
2019-01-10T00:30:18.176Z,4.55
2019-01-10T00:33:25.286Z,5.47
2019-01-10T00:36:32.360Z,3.62
2019-01-10T00:39:42.148Z,5.05
2019-01-10T00:42:50.033Z,4.50
2019-01-10T00:45:57.242Z,4.47
2019-01-10T00:49:04.360Z,3.95
2019-01-10T00:52:12.289Z,3.50
2019-01-10T00:55:22.540Z,4.97
2019-01-10T00:58:29.535Z,4.58
2019-01-10T01:01:36.848Z,4.10
2019-01-10T01:04:43.932Z,4.20
2019-01-10T01:07:51.023Z,4.22
2019-01-10T01:10:58.100Z,3.80
2019-01-10T01:14:05.696Z,3.50
2019-01-10T01:17:12.724Z,3.95
2019-01-10T01:20:25.949Z,4.40
2019-01-10T01:23:32.956Z,4.40
2019-01-10T01:26:40.078Z,3.87
2019-01-10T01:29:47.147Z,4.60
2019-01-10T01:32:54.297Z,4.03
2019-01-10T01:36:01.330Z,4.50
2019-01-10T01:39:09.761Z,4.55
2019-01-10T01:42:17.232Z,4.12
2019-01-10T01:45:24.297Z,4.45
2019-01-10T01:48:32.853Z,5.20
2019-01-10T01:51:41.414Z,4.40
2019-01-10T01:54:48.442Z,5.47
2019-01-10T01:57:55.602Z,5.47
2019-01-10T02:01:02.796Z,5.65
2019-01-10T02:04:12.590Z,5.35
2019-01-10T02:07:19.669Z,3.80
2019-01-10T02:10:31.728Z,5.10
2019-01-10T02:13:40.708Z,4.25
2019-01-10T02:16:47.763Z,4.65
2019-01-10T02:19:54.831Z,4.10
2019-01-10T02:23:01.988Z,4.97
2019-01-10T02:26:09.035Z,4.33
2019-01-10T02:29:16.142Z,3.83
2019-01-10T02:32:23.286Z,4.50
2019-01-10T02:35:41.012Z,4.33
2019-01-10T02:38:46.861Z,4.22
2019-01-10T02:41:53.938Z,4.50
2019-01-10T02:45:01.119Z,4.12
2019-01-10T02:48:08.228Z,4.53
2019-01-10T02:51:15.304Z,3.80
2019-01-10T02:54:22.742Z,4.67
2019-01-10T02:57:30.095Z,4.87
2019-01-10T03:00:39.712Z,5.67
2019-01-10T03:03:47.236Z,3.80
2019-01-10T03:06:54.737Z,4.50
2019-01-10T03:10:01.785Z,4.70
2019-01-10T03:13:08.872Z,3.83
2019-01-10T03:16:15.867Z,3.67
2019-01-10T03:19:22.889Z,4.00
2019-01-10T03:22:34.552Z,4.40
2019-01-10T03:25:44.135Z,3.20
2019-01-10T03:28:51.114Z,3.92
2019-01-10T03:32:01.079Z,4.58
2019-01-10T03:35:10.165Z,3.95
2019-01-10T03:38:19.483Z,4.30
2019-01-10T03:41:26.890Z,5.20
2019-01-10T03:44:34.706Z,5.42
2019-01-10T03:47:44.952Z,4.42
2019-01-10T03:50:51.994Z,5.33
2019-01-10T03:53:58.991Z,5.25
2019-01-10T03:57:06.093Z,3.75
2019-01-10T04:00:25.980Z,4.30
2019-01-10T04:03:33.091Z,4.12
2019-01-10T04:06:40.162Z,3.90
2019-01-10T04:09:47.790Z,5.78
2019-01-10T04:12:54.917Z,4.58
2019-01-10T04:19:07.636Z,4.62
2019-01-10T04:22:14.543Z,2.80
2019-01-10T04:25:21.520Z,2.97
2019-01-10T04:28:29.323Z,2.45
2019-01-10T04:31:36.733Z,2.27
2019-01-10T04:34:43.901Z,2.75
2019-01-10T04:37:50.921Z,2.30
2019-01-10T04:40:57.969Z,3.00
2019-01-10T04:44:07.197Z,4.12
2019-01-10T04:47:15.839Z,3.30
2019-01-10T04:50:22.891Z,3.98
2019-01-10T04:53:32.901Z,3.72
2019-01-10T04:56:40.142Z,3.22
2019-01-10T04:59:47.250Z,3.87
2019-01-10T05:02:54.406Z,3.52
2019-01-10T05:06:01.644Z,4.53
2019-01-10T05:09:09.438Z,3.95
2019-01-10T05:12:16.822Z,3.67
2019-01-10T05:15:31.554Z,3.20
2019-01-10T05:18:38.738Z,5.05
2019-01-10T05:21:45.976Z,3.17
2019-01-10T05:24:52.968Z,3.77
2019-01-10T05:28:01.109Z,3.80
2019-01-10T05:31:08.217Z,3.95
2019-01-10T05:34:15.290Z,4.65
2019-01-10T05:37:22.674Z,9.03
2019-01-10T05:40:29.956Z,5.55
2019-01-10T05:43:36.998Z,4.87
2019-01-10T05:46:48.639Z,4.25
2019-01-10T05:49:54.718Z,3.80
2019-01-10T05:53:04.839Z,4.92
2019-01-10T05:56:15.601Z,5.05
2019-01-10T05:59:21.134Z,3.95
2019-01-10T06:02:29.140Z,4.85
2019-01-10T06:05:36.190Z,4.33
2019-01-10T06:08:43.260Z,4.20
2019-01-10T06:11:50.362Z,4.42
2019-01-10T06:14:57.777Z,5.40
2019-01-10T06:18:04.955Z,3.72
2019-01-10T06:21:12.075Z,5.08
2019-01-10T06:24:19.088Z,4.58
2019-01-10T06:27:27.639Z,4.55
2019-01-10T06:30:34.638Z,4.28
2019-01-10T06:33:41.660Z,4.85
2019-01-10T06:36:48.720Z,3.80
2019-01-10T06:39:55.810Z,3.80
2019-01-10T06:43:02.790Z,4.65
2019-01-10T06:46:09.848Z,3.87
2019-01-10T06:49:17.045Z,3.30
2019-01-10T06:52:24.428Z,3.25
2019-01-10T06:55:31.541Z,5.25
2019-01-10T06:58:38.652Z,4.10
2019-01-10T07:01:45.811Z,4.72
2019-01-10T07:04:52.838Z,3.70
2019-01-10T07:07:59.912Z,4.12
2019-01-10T07:11:07.540Z,4.70
2019-01-10T07:14:14.625Z,4.17
2019-01-10T07:17:24.883Z,5.20
2019-01-10T07:20:37.729Z,4.37
2019-01-10T07:23:48.961Z,5.50
2019-01-10T07:27:00.176Z,4.03
2019-01-10T07:30:12.291Z,5.75
2019-01-10T07:33:19.332Z,4.83
2019-01-10T07:36:26.444Z,6.22
2019-01-10T07:39:38.926Z,5.65
2019-01-10T07:42:45.997Z,3.98
2019-01-10T07:45:53.128Z,3.15
2019-01-10T07:49:00.282Z,4.20
2019-01-10T07:52:07.350Z,3.45
2019-01-10T07:55:14.657Z,3.17
2019-01-10T07:58:25.661Z,4.58
2019-01-10T08:01:32.733Z,6.15
2019-01-10T08:04:42.083Z,3.80
2019-01-10T08:07:49.554Z,4.47
2019-01-10T08:10:57.183Z,4.83
2019-01-10T08:14:05.062Z,6.17
2019-01-10T08:17:16.163Z,3.62
2019-01-10T08:20:21.645Z,4.80
2019-01-10T08:23:28.623Z,5.92
2019-01-10T08:26:35.657Z,6.03
2019-01-10T08:29:42.706Z,6.28
2019-01-10T08:32:52.048Z,5.70
2019-01-10T08:35:59.079Z,6.50
2019-01-10T08:39:09.181Z,7.42
2019-01-10T08:42:16.511Z,7.80
2019-01-10T08:45:24.026Z,6.40
2019-01-10T08:48:32.154Z,5.30
2019-01-10T08:51:39.193Z,7.20
2019-01-10T08:54:46.269Z,7.60
2019-01-10T08:57:53.374Z,7.33
2019-01-10T09:01:00.763Z,4.03
2019-01-10T09:04:08.904Z,6.30
2019-01-10T09:07:16.332Z,5.42
2019-01-10T09:10:34.630Z,5.10
2019-01-10T09:13:41.665Z,7.50
2019-01-10T09:16:48.795Z,5.37
2019-01-10T09:19:55.825Z,4.30
2019-01-10T09:23:03.312Z,4.58
2019-01-10T09:26:11.916Z,4.50
2019-01-10T09:29:19.273Z,6.35
2019-01-10T09:32:26.338Z,6.87
2019-01-10T09:35:33.543Z,4.65
2019-01-10T09:38:40.633Z,4.58
2019-01-10T09:41:47.847Z,4.97
2019-01-10T09:44:54.914Z,5.12
2019-01-10T09:48:02.047Z,4.67
2019-01-10T09:51:09.331Z,3.40
2019-01-10T09:54:17.499Z,3.67
2019-01-10T09:57:24.649Z,3.80
2019-01-10T10:00:32.739Z,3.98
2019-01-10T10:03:40.009Z,4.40
2019-01-10T10:06:47.029Z,3.95
2019-01-10T10:09:54.119Z,3.02
2019-01-10T10:13:01.347Z,3.70
2019-01-10T10:16:08.519Z,3.35
2019-01-10T10:19:15.665Z,5.47
2019-01-10T10:22:22.767Z,4.37
2019-01-10T10:25:31.009Z,4.67
2019-01-10T10:28:38.078Z,4.42
2019-01-10T10:31:47.012Z,4.60
2019-01-10T10:34:54.429Z,5.72
2019-01-10T10:38:01.519Z,5.28
2019-01-10T10:41:08.601Z,4.87
2019-01-10T10:44:15.908Z,4.70
2019-01-10T10:47:23.104Z,4.33
2019-01-10T10:50:31.503Z,4.12
2019-01-10T10:53:38.553Z,5.00
2019-01-10T10:56:45.678Z,6.45
2019-01-10T10:59:55.015Z,5.80
2019-01-10T11:03:02.546Z,5.12
2019-01-10T11:06:09.674Z,4.45
2019-01-10T11:09:16.989Z,4.62
2019-01-10T11:12:24.062Z,6.50
2019-01-10T11:15:31.322Z,4.67
2019-01-10T11:18:38.460Z,6.42
2019-01-10T11:21:45.633Z,3.70
2019-01-10T11:24:52.782Z,5.90
2019-01-10T11:28:00.975Z,4.58
2019-01-10T11:31:08.457Z,3.77
2019-01-10T11:34:15.560Z,5.97
2019-01-10T11:37:22.607Z,5.95
2019-01-10T11:40:29.750Z,4.37
2019-01-10T11:43:36.897Z,3.80
2019-01-10T11:46:44.274Z,5.05
2019-01-10T11:49:52.958Z,3.80
2019-01-10T11:53:00.130Z,5.10
2019-01-10T11:56:07.460Z,2.98
2019-01-10T11:59:14.466Z,5.50
2019-01-10T12:02:21.826Z,3.95
2019-01-10T12:05:29.608Z,3.85
2019-01-10T12:08:36.661Z,5.35
2019-01-10T12:11:43.769Z,3.85
2019-01-10T12:14:50.928Z,4.60
2019-01-10T12:17:57.975Z,4.47
2019-01-10T12:21:05.034Z,4.30
2019-01-10T12:24:12.092Z,4.12
2019-01-10T12:27:19.161Z,3.55
2019-01-10T12:30:29.474Z,4.87
2019-01-10T12:33:39.274Z,4.12
2019-01-10T12:36:46.320Z,3.52
2019-01-10T12:39:56.560Z,5.12
2019-01-10T12:43:03.705Z,5.50
2019-01-10T12:46:10.726Z,4.05
2019-01-10T12:49:17.875Z,5.75
2019-01-10T12:52:25.154Z,7.25
2019-01-10T12:55:32.286Z,7.25
2019-01-10T12:58:39.529Z,4.92
2019-01-10T13:01:46.677Z,5.62
2019-01-10T13:04:53.841Z,4.90
2019-01-10T13:08:03.742Z,5.30
2019-01-10T13:11:10.094Z,4.80
2019-01-10T13:14:17.197Z,3.77
2019-01-10T13:17:24.262Z,6.40
2019-01-10T13:20:34.422Z,6.45
2019-01-10T13:23:41.606Z,4.55
2019-01-10T13:26:48.730Z,4.55
2019-01-10T13:29:55.844Z,5.72
2019-01-10T13:33:04.131Z,6.80
2019-01-10T13:36:11.403Z,6.70
2019-01-10T13:39:18.392Z,5.55
2019-01-10T13:42:25.412Z,6.30
2019-01-10T13:45:32.410Z,8.30
2019-01-10T13:48:39.410Z,6.78
2019-01-10T13:51:46.413Z,4.78
2019-01-10T13:54:53.406Z,5.17
2019-01-10T13:58:00.749Z,7.17
2019-01-10T14:04:15.871Z,5.28
2019-01-10T14:07:22.967Z,7.30
2019-01-10T14:10:30.201Z,7.17
2019-01-10T14:13:37.368Z,7.75
2019-01-10T14:16:44.554Z,6.03
2019-01-10T14:19:51.776Z,8.58
2019-01-10T14:22:58.815Z,6.90
2019-01-10T14:26:06.122Z,5.92
2019-01-10T14:29:13.421Z,7.97
2019-01-10T14:32:20.586Z,8.60
2019-01-10T14:35:28.020Z,7.45
2019-01-10T14:38:35.214Z,7.85
2019-01-10T14:41:42.377Z,8.35
2019-01-10T14:44:51.000Z,8.85
2019-01-10T14:48:01.738Z,7.33
2019-01-10T14:51:07.041Z,9.30
2019-01-10T14:54:14.272Z,7.60
2019-01-10T14:57:21.541Z,7.12
2019-01-10T15:00:28.662Z,6.28
2019-01-10T15:03:35.689Z,7.17
2019-01-10T15:06:42.965Z,6.83
2019-01-10T15:09:49.956Z,5.92
2019-01-10T15:12:57.590Z,7.70
2019-01-10T15:16:04.732Z,5.83
2019-01-10T15:19:11.893Z,6.50
2019-01-10T15:22:18.903Z,6.65
2019-01-10T15:25:25.917Z,6.62
2019-01-10T15:28:32.966Z,7.62
2019-01-10T15:31:40.121Z,5.97
2019-01-10T15:34:47.124Z,6.45
2019-01-10T15:37:55.617Z,6.22
2019-01-10T15:41:03.432Z,7.28
2019-01-10T15:44:10.548Z,8.43
2019-01-10T15:47:19.892Z,5.90
2019-01-10T15:50:26.274Z,6.55
2019-01-10T15:53:33.248Z,7.80
2019-01-10T15:56:40.255Z,6.95
2019-01-10T15:59:47.810Z,9.08
2019-01-10T16:02:56.812Z,8.98
2019-01-10T16:06:03.864Z,8.00
2019-01-10T16:09:10.996Z,5.72
2019-01-10T16:12:18.051Z,6.90
2019-01-10T16:15:28.134Z,10.10
2019-01-10T16:18:35.125Z,5.95
2019-01-10T16:21:42.151Z,6.90
2019-01-10T16:24:49.267Z,7.80
2019-01-10T16:27:56.508Z,5.78
2019-01-10T16:31:03.541Z,6.55
2019-01-10T16:34:11.857Z,9.33
2019-01-10T16:37:19.571Z,6.35
2019-01-10T16:40:27.103Z,5.87
2019-01-10T16:43:34.191Z,6.00
2019-01-10T16:46:41.349Z,5.22
2019-01-10T16:49:56.161Z,3.95
2019-01-10T16:53:03.311Z,4.78
2019-01-10T16:56:10.604Z,5.22
2019-01-10T16:59:17.760Z,4.50
2019-01-10T17:02:25.993Z,5.08
2019-01-10T17:05:33.658Z,5.00
2019-01-10T17:08:40.819Z,5.20
2019-01-10T17:11:47.950Z,5.72
2019-01-10T17:14:55.049Z,3.83
2019-01-10T17:18:02.446Z,3.62
2019-01-10T17:21:10.558Z,6.10
2019-01-10T17:24:17.701Z,5.42
2019-01-10T17:27:24.649Z,5.78
2019-01-10T17:30:35.025Z,4.85
2019-01-10T17:33:42.111Z,4.50
2019-01-10T17:36:50.574Z,4.50
2019-01-10T17:39:59.190Z,5.95
2019-01-10T17:43:08.207Z,5.92
2019-01-10T17:46:15.183Z,5.95
2019-01-10T17:49:22.204Z,5.83
2019-01-10T17:52:32.111Z,8.23
2019-01-10T17:55:39.142Z,4.87
2019-01-10T17:58:46.201Z,4.58
2019-01-10T18:01:54.870Z,5.70
2019-01-10T18:05:01.997Z,5.05
2019-01-10T18:08:09.037Z,4.95
2019-01-10T18:11:16.310Z,5.70
2019-01-10T18:14:26.955Z,4.92
2019-01-10T18:17:33.976Z,6.30
2019-01-10T18:20:42.271Z,4.50
2019-01-10T18:23:49.244Z,4.35
2019-01-10T18:26:59.902Z,4.17
2019-01-10T18:30:12.351Z,3.05
2019-01-10T18:33:19.487Z,4.85
2019-01-10T18:36:28.168Z,5.00
2019-01-10T18:39:35.329Z,3.22
2019-01-10T18:42:42.367Z,4.53
2019-01-10T18:45:50.492Z,5.97
2019-01-10T18:48:58.776Z,4.55
2019-01-10T18:52:05.811Z,5.00
2019-01-10T18:55:15.452Z,5.65
2019-01-10T18:58:22.513Z,6.00
2019-01-10T19:01:29.590Z,7.00
2019-01-10T19:04:36.871Z,5.80
2019-01-10T19:07:44.045Z,5.40
2019-01-10T19:10:52.171Z,5.25
2019-01-10T19:13:59.709Z,5.60
2019-01-10T19:17:06.781Z,5.42
2019-01-10T19:20:20.703Z,6.00
2019-01-10T19:23:27.769Z,5.05
2019-01-10T19:26:34.842Z,5.17
2019-01-10T19:29:42.403Z,6.20
2019-01-10T19:32:50.098Z,8.33
2019-01-10T19:35:57.522Z,5.85
2019-01-10T19:39:07.086Z,6.12
2019-01-10T19:42:14.137Z,7.12
2019-01-10T19:45:21.615Z,5.40
2019-01-10T19:48:29.066Z,5.75
2019-01-10T19:51:36.236Z,5.80
2019-01-10T19:54:43.432Z,6.65
2019-01-10T19:57:50.642Z,6.65
2019-01-10T20:00:58.773Z,13.00
2019-01-10T20:04:05.949Z,10.82
2019-01-10T20:07:13.189Z,9.13
2019-01-10T20:10:20.341Z,10.78
2019-01-10T20:13:27.503Z,12.07
2019-01-10T20:16:34.489Z,9.48
2019-01-10T20:19:41.682Z,9.78
2019-01-10T20:22:48.768Z,8.90
2019-01-10T20:25:56.395Z,6.40
2019-01-10T20:29:03.602Z,7.35
2019-01-10T20:32:11.742Z,8.85
2019-01-10T20:35:18.830Z,6.72
2019-01-10T20:38:25.823Z,6.33
2019-01-10T20:41:32.890Z,5.72
2019-01-10T20:44:40.067Z,7.80
2019-01-10T20:47:47.157Z,6.15
2019-01-10T20:50:55.209Z,8.18
2019-01-10T20:54:02.392Z,6.20
2019-01-10T20:57:09.495Z,7.87
2019-01-10T21:00:19.996Z,9.03
2019-01-10T21:03:27.076Z,7.87
2019-01-10T21:06:36.833Z,7.85
2019-01-10T21:09:45.418Z,6.35
2019-01-10T21:12:52.599Z,6.25
2019-01-10T21:15:59.751Z,6.60
2019-01-10T21:19:06.923Z,8.43
2019-01-10T21:22:13.971Z,7.45
2019-01-10T21:25:21.050Z,9.13
2019-01-10T21:28:28.201Z,8.70
2019-01-10T21:31:35.245Z,7.83
2019-01-10T21:34:42.574Z,7.87
2019-01-10T21:37:51.431Z,9.25
2019-01-10T21:40:58.520Z,8.15
2019-01-10T21:44:05.634Z,6.65
2019-01-10T21:47:12.770Z,10.70
2019-01-10T21:50:23.562Z,8.10
2019-01-10T21:53:30.904Z,8.20
2019-01-10T21:56:38.956Z,8.35
2019-01-10T21:59:45.957Z,7.40
2019-01-10T22:02:53.039Z,9.03
2019-01-10T22:06:00.394Z,7.90
2019-01-10T22:09:09.857Z,7.75
2019-01-10T22:12:17.024Z,10.23
2019-01-10T22:15:24.030Z,9.48
2019-01-10T22:18:33.547Z,8.43
2019-01-10T22:21:40.545Z,7.95
2019-01-10T22:24:47.621Z,7.28
2019-01-10T22:27:57.779Z,9.95
2019-01-10T22:31:05.065Z,9.18
2019-01-10T22:34:12.141Z,9.95
2019-01-10T22:37:19.402Z,7.42
2019-01-10T22:40:26.836Z,8.58
2019-01-10T22:43:34.414Z,9.08
2019-01-10T22:46:41.397Z,8.35
2019-01-10T22:49:48.750Z,8.05
2019-01-10T22:52:57.063Z,8.33
2019-01-10T22:56:04.571Z,8.35
2019-01-10T22:59:11.527Z,8.83
2019-01-10T23:02:18.625Z,8.38
2019-01-10T23:05:25.742Z,8.68
2019-01-10T23:08:35.963Z,6.12
2019-01-10T23:11:43.155Z,9.28
2019-01-10T23:14:50.188Z,9.95
2019-01-10T23:17:57.513Z,7.72
2019-01-10T23:21:05.097Z,8.43
2019-01-10T23:24:14.586Z,8.43
2019-01-10T23:27:22.355Z,7.37
2019-01-10T23:30:50.045Z,6.62
2019-01-10T23:34:02.599Z,11.08
2019-01-10T23:37:09.655Z,8.23
2019-01-10T23:40:16.923Z,8.63
2019-01-10T23:43:23.886Z,8.88
2019-01-10T23:46:30.902Z,6.85
2019-01-10T23:49:38.103Z,9.48
2019-01-10T23:52:45.213Z,7.10
2019-01-10T23:55:52.285Z,8.65
2019-01-10T23:59:00.488Z,7.95
